createdAt,value
2022-11-26T09:57:41.419Z,101915.13
2022-11-26T10:00:39.633Z,101917.17
2022-11-26T10:03:21.732Z,101921.23
2022-11-26T10:06:07.883Z,101916.63
2022-11-26T10:08:52.256Z,101911.00
2022-11-26T10:11:58.560Z,101907.15
2022-11-26T10:15:19.941Z,101912.91
2022-11-26T10:18:13.692Z,101908.66
2022-11-26T10:21:37.871Z,101910.69
2022-11-26T10:24:32.482Z,101907.36
2022-11-26T10:27:24.693Z,101908.85
2022-11-26T10:30:10.652Z,101909.65
2022-11-26T10:32:44.407Z,101909.22
2022-11-26T10:35:30.081Z,101907.62
2022-11-26T10:37:59.588Z,101906.04
2022-11-26T10:40:31.408Z,101915.38
2022-11-26T10:43:09.309Z,101915.61
2022-11-26T10:45:54.387Z,101911.23
2022-11-26T10:48:35.474Z,101910.83
2022-11-26T10:51:17.602Z,101920.59
2022-11-26T10:53:59.303Z,101920.59
2022-11-26T10:56:53.424Z,101922.70
2022-11-26T10:59:38.312Z,101918.17
2022-11-26T11:02:39.349Z,101918.41
2022-11-26T11:05:10.299Z,101925.38
2022-11-26T11:07:38.986Z,101919.17
2022-11-26T11:10:11.850Z,101916.96
2022-11-26T11:12:42.831Z,101912.42
2022-11-26T11:15:23.506Z,101916.39
2022-11-26T11:17:55.219Z,101921.08
2022-11-26T11:20:29.497Z,101921.21
2022-11-26T11:23:12.457Z,101919.80
2022-11-26T11:25:47.474Z,101913.70
2022-11-26T11:28:23.045Z,101916.30
2022-11-26T11:31:24.593Z,101923.52
2022-11-26T11:34:20.647Z,101923.91
2022-11-26T11:37:05.815Z,101926.35
2022-11-26T11:39:36.173Z,101918.39
2022-11-26T11:42:21.294Z,101917.43
2022-11-26T16:06:38.372Z,102030.43
2022-11-26T16:09:17.970Z,102033.36
2022-11-26T16:26:18.822Z,102049.73
2022-11-26T16:28:48.164Z,102052.66
2022-11-26T16:31:17.370Z,102056.67
2022-11-26T16:33:45.433Z,102058.16
2022-11-26T16:36:33.631Z,102067.20
2022-11-26T16:39:12.320Z,102067.29
2022-11-26T16:41:51.603Z,102070.05
2022-11-26T16:44:42.111Z,102075.28
2022-11-26T16:47:41.075Z,102068.60
2022-11-26T16:50:47.935Z,102071.33
2022-11-26T16:53:17.695Z,102072.52
2022-11-26T16:55:55.461Z,102068.91
2022-11-26T16:58:48.061Z,102074.83
2022-11-26T17:01:17.420Z,102068.65
2022-11-26T17:03:46.079Z,102085.11
2022-11-26T17:06:46.142Z,102084.05
2022-11-26T17:09:20.646Z,102085.80
2022-11-26T17:11:49.608Z,102089.91
2022-11-26T17:14:19.787Z,102091.89
2022-11-26T17:19:47.944Z,102097.20
2022-11-26T17:22:21.564Z,102093.70
2022-11-26T17:24:55.519Z,102099.27
2022-11-26T17:27:25.083Z,102100.38
2022-11-26T17:30:06.991Z,102097.27
2022-11-26T17:35:51.895Z,102091.29
2022-11-26T17:38:22.998Z,102098.77
2022-11-26T17:40:58.199Z,102102.68
2022-11-26T17:43:46.935Z,102100.45
2022-11-26T17:46:25.666Z,102104.85
2022-11-26T17:48:59.585Z,102105.86
2022-11-26T17:51:37.180Z,102106.88
2022-11-26T17:54:06.398Z,102106.34
2022-11-26T17:56:35.502Z,102108.11
2022-11-26T17:59:04.482Z,102107.89
2022-11-26T18:01:33.613Z,102110.23
2022-11-26T18:04:03.139Z,102108.27
2022-11-26T18:07:22.338Z,102110.92
2022-11-26T18:09:59.393Z,102112.88
2022-11-26T18:12:29.350Z,102114.97
2022-11-26T18:14:59.061Z,102111.65
2022-11-26T18:17:28.801Z,102116.05
2022-11-26T18:20:01.423Z,102121.96
2022-11-26T18:33:39.396Z,102125.73
2022-11-26T18:36:07.752Z,102129.31
2022-11-26T18:38:41.442Z,102130.45
2022-11-26T18:41:29.850Z,102129.46
2022-11-26T18:43:58.170Z,102132.45
2022-11-26T18:46:25.838Z,102130.47
2022-11-26T18:48:57.019Z,102132.54
2022-11-26T18:51:24.819Z,102140.20
2022-11-26T18:53:52.673Z,102145.71
2022-11-26T18:56:25.213Z,102148.14
2022-11-26T18:58:52.712Z,102154.04
2022-11-26T19:01:30.708Z,102155.58
2022-11-26T19:04:04.298Z,102159.89
2022-11-26T19:06:33.279Z,102165.27
2022-11-26T19:09:10.971Z,102171.26
2022-11-26T19:11:39.622Z,102168.61
2022-11-26T19:14:15.826Z,102161.89
2022-11-26T19:16:53.871Z,102160.98
2022-11-26T19:19:32.668Z,102156.11
2022-11-26T19:22:02.317Z,102154.19
2022-11-26T19:24:30.465Z,102154.72
2022-11-26T19:26:58.584Z,102158.24
2022-11-26T19:29:45.177Z,102164.31
2022-11-26T19:32:29.800Z,102166.20
2022-11-26T19:35:06.559Z,102169.77
2022-11-26T19:37:36.895Z,102172.45
2022-11-26T19:40:06.570Z,102175.27
2022-11-26T19:42:36.685Z,102173.67
2022-11-26T19:45:08.786Z,102173.63
2022-11-26T19:47:42.257Z,102174.80
2022-11-26T19:50:13.724Z,102174.08
2022-11-26T19:52:46.473Z,102175.14
2022-11-26T19:55:16.618Z,102173.52
2022-11-26T19:57:51.629Z,102171.73
2022-11-26T20:00:20.912Z,102168.09
2022-11-26T20:02:51.877Z,102171.48
2022-11-26T20:05:23.457Z,102170.66
2022-11-26T20:07:55.786Z,102171.98
2022-11-26T20:10:51.151Z,102170.95
2022-11-26T20:13:22.322Z,102174.23
2022-11-26T20:19:04.013Z,102177.52
2022-11-26T20:25:09.600Z,102183.16
2022-11-26T20:41:29.239Z,102178.02
2022-11-26T20:43:59.653Z,102174.64
2022-11-26T20:46:29.047Z,102176.16
2022-11-26T20:49:00.752Z,102170.69
2022-11-26T20:51:29.583Z,102169.30
2022-11-26T20:54:07.844Z,102169.20
2022-11-26T20:56:40.319Z,102174.38
2022-11-26T20:59:12.416Z,102174.55
2022-11-26T21:01:48.877Z,102180.09
2022-11-26T21:04:20.191Z,102182.97
2022-11-26T21:06:49.358Z,102186.54
2022-11-26T21:09:18.526Z,102190.88
2022-11-26T21:11:47.746Z,102193.14
2022-11-26T21:14:17.344Z,102195.45
2022-11-26T21:16:51.758Z,102198.08
2022-11-26T21:19:21.262Z,102200.48
2022-11-26T21:21:56.554Z,102199.49
2022-11-26T21:24:27.146Z,102199.83
2022-11-26T21:26:56.293Z,102201.05
2022-11-26T21:29:25.122Z,102198.65
2022-11-26T21:32:05.658Z,102201.34
2022-11-26T21:34:37.216Z,102201.50
2022-11-26T21:37:09.681Z,102202.17
2022-11-26T21:39:39.934Z,102206.05
2022-11-26T22:04:32.598Z,102208.94
2022-11-26T22:07:06.292Z,102201.48
2022-11-26T22:09:37.202Z,102201.28
2022-11-26T22:12:07.855Z,102203.33
2022-11-26T22:14:49.672Z,102203.27
2022-11-26T22:17:23.835Z,102206.66
2022-11-26T22:19:51.304Z,102206.63
2022-11-26T22:22:22.099Z,102209.59
2022-11-26T22:24:49.802Z,102209.01
2022-11-26T22:27:22.300Z,102210.38
2022-11-26T22:29:55.648Z,102211.55
2022-11-26T22:32:23.950Z,102216.45
2022-11-26T22:34:54.457Z,102216.52
2022-11-26T22:37:24.585Z,102213.04
2022-11-26T22:39:54.609Z,102214.54
2022-11-26T22:42:22.795Z,102216.62
2022-11-26T22:44:53.263Z,102219.20
2022-11-26T22:47:20.927Z,102218.02
